sensor_id;sensor_type;location;lat;lon;timestamp;P1;durP1;ratioP1;P2;durP2;ratioP2
21999;SDS011;11164;48.818;2.322;2023-10-31T00:00:28;6.22;;;1.23;;
21999;SDS011;11164;48.818;2.322;2023-10-31T00:02:53;6.72;;;1.20;;
21999;SDS011;11164;48.818;2.322;2023-10-31T00:05:19;5.00;;;1.40;;
21999;SDS011;11164;48.818;2.322;2023-10-31T00:07:44;3.92;;;1.20;;
21999;SDS011;11164;48.818;2.322;2023-10-31T00:10:09;5.25;;;1.20;;
21999;SDS011;11164;48.818;2.322;2023-10-31T00:12:35;5.60;;;1.17;;
21999;SDS011;11164;48.818;2.322;2023-10-31T00:15:00;5.47;;;1.20;;
21999;SDS011;11164;48.818;2.322;2023-10-31T00:17:25;4.03;;;1.10;;
21999;SDS011;11164;48.818;2.322;2023-10-31T00:19:51;6.05;;;1.10;;
21999;SDS011;11164;48.818;2.322;2023-10-31T00:22:16;5.90;;;1.50;;
21999;SDS011;11164;48.818;2.322;2023-10-31T00:24:42;6.03;;;1.30;;
21999;SDS011;11164;48.818;2.322;2023-10-31T00:27:08;5.38;;;1.23;;
21999;SDS011;11164;48.818;2.322;2023-10-31T00:29:34;5.70;;;1.20;;
21999;SDS011;11164;48.818;2.322;2023-10-31T00:31:59;4.53;;;1.30;;
21999;SDS011;11164;48.818;2.322;2023-10-31T00:34:24;6.25;;;1.50;;
21999;SDS011;11164;48.818;2.322;2023-10-31T00:36:49;8.02;;;1.20;;
21999;SDS011;11164;48.818;2.322;2023-10-31T00:39:15;7.72;;;1.55;;
21999;SDS011;11164;48.818;2.322;2023-10-31T00:41:43;4.60;;;1.60;;
21999;SDS011;11164;48.818;2.322;2023-10-31T00:44:10;4.78;;;1.05;;
21999;SDS011;11164;48.818;2.322;2023-10-31T00:46:36;5.75;;;1.27;;
21999;SDS011;11164;48.818;2.322;2023-10-31T00:49:01;6.13;;;1.48;;
21999;SDS011;11164;48.818;2.322;2023-10-31T00:51:26;11.85;;;1.27;;
21999;SDS011;11164;48.818;2.322;2023-10-31T00:53:52;4.40;;;1.25;;
21999;SDS011;11164;48.818;2.322;2023-10-31T00:56:17;5.30;;;1.55;;
21999;SDS011;11164;48.818;2.322;2023-10-31T00:58:42;5.82;;;1.55;;
21999;SDS011;11164;48.818;2.322;2023-10-31T01:01:08;5.38;;;1.48;;
21999;SDS011;11164;48.818;2.322;2023-10-31T01:03:33;5.15;;;1.50;;
21999;SDS011;11164;48.818;2.322;2023-10-31T01:05:58;3.40;;;1.38;;
21999;SDS011;11164;48.818;2.322;2023-10-31T01:08:23;6.10;;;1.50;;
21999;SDS011;11164;48.818;2.322;2023-10-31T01:10:49;6.47;;;1.63;;
21999;SDS011;11164;48.818;2.322;2023-10-31T01:13:14;5.40;;;1.48;;
21999;SDS011;11164;48.818;2.322;2023-10-31T01:15:40;6.15;;;1.70;;
21999;SDS011;11164;48.818;2.322;2023-10-31T01:18:05;4.45;;;1.50;;
21999;SDS011;11164;48.818;2.322;2023-10-31T01:20:31;8.07;;;1.98;;
21999;SDS011;11164;48.818;2.322;2023-10-31T01:22:56;5.80;;;1.83;;
21999;SDS011;11164;48.818;2.322;2023-10-31T01:25:21;6.38;;;1.70;;
21999;SDS011;11164;48.818;2.322;2023-10-31T01:27:47;7.10;;;1.83;;
21999;SDS011;11164;48.818;2.322;2023-10-31T01:30:12;4.30;;;1.50;;
21999;SDS011;11164;48.818;2.322;2023-10-31T01:32:38;7.68;;;1.90;;
21999;SDS011;11164;48.818;2.322;2023-10-31T01:35:04;5.95;;;1.58;;
21999;SDS011;11164;48.818;2.322;2023-10-31T01:37:29;4.97;;;1.70;;
21999;SDS011;11164;48.818;2.322;2023-10-31T01:39:55;6.90;;;1.90;;
21999;SDS011;11164;48.818;2.322;2023-10-31T01:42:20;6.22;;;1.88;;
21999;SDS011;11164;48.818;2.322;2023-10-31T01:44:45;5.78;;;1.90;;
21999;SDS011;11164;48.818;2.322;2023-10-31T01:47:11;6.97;;;1.95;;
21999;SDS011;11164;48.818;2.322;2023-10-31T01:49:36;4.72;;;1.88;;
21999;SDS011;11164;48.818;2.322;2023-10-31T01:52:03;4.38;;;1.95;;
21999;SDS011;11164;48.818;2.322;2023-10-31T01:54:29;4.32;;;2.00;;
21999;SDS011;11164;48.818;2.322;2023-10-31T01:56:57;4.32;;;1.90;;
21999;SDS011;11164;48.818;2.322;2023-10-31T01:59:24;7.80;;;2.00;;
21999;SDS011;11164;48.818;2.322;2023-10-31T02:01:51;6.07;;;2.05;;
21999;SDS011;11164;48.818;2.322;2023-10-31T02:04:17;6.13;;;1.88;;
21999;SDS011;11164;48.818;2.322;2023-10-31T02:06:42;7.53;;;2.00;;
21999;SDS011;11164;48.818;2.322;2023-10-31T02:09:08;7.20;;;2.15;;
21999;SDS011;11164;48.818;2.322;2023-10-31T02:11:33;10.80;;;2.33;;
21999;SDS011;11164;48.818;2.322;2023-10-31T02:13:58;8.35;;;1.85;;
21999;SDS011;11164;48.818;2.322;2023-10-31T02:16:24;10.10;;;2.40;;
21999;SDS011;11164;48.818;2.322;2023-10-31T02:18:50;4.72;;;1.90;;
21999;SDS011;11164;48.818;2.322;2023-10-31T02:21:16;8.05;;;2.03;;
21999;SDS011;11164;48.818;2.322;2023-10-31T02:23:54;5.88;;;2.28;;
21999;SDS011;11164;48.818;2.322;2023-10-31T02:26:21;6.50;;;2.03;;
21999;SDS011;11164;48.818;2.322;2023-10-31T02:28:47;5.07;;;2.40;;
21999;SDS011;11164;48.818;2.322;2023-10-31T02:31:12;10.85;;;2.78;;
21999;SDS011;11164;48.818;2.322;2023-10-31T02:33:38;5.68;;;2.42;;
21999;SDS011;11164;48.818;2.322;2023-10-31T02:36:03;9.70;;;2.65;;
21999;SDS011;11164;48.818;2.322;2023-10-31T02:38:28;7.75;;;2.55;;
21999;SDS011;11164;48.818;2.322;2023-10-31T02:40:54;6.82;;;2.33;;
21999;SDS011;11164;48.818;2.322;2023-10-31T02:43:19;9.80;;;2.95;;
21999;SDS011;11164;48.818;2.322;2023-10-31T02:45:44;7.90;;;2.83;;
21999;SDS011;11164;48.818;2.322;2023-10-31T02:48:09;8.18;;;2.50;;
21999;SDS011;11164;48.818;2.322;2023-10-31T02:50:35;7.13;;;2.60;;
21999;SDS011;11164;48.818;2.322;2023-10-31T02:53:00;8.52;;;2.83;;
21999;SDS011;11164;48.818;2.322;2023-10-31T02:55:27;10.68;;;3.05;;
21999;SDS011;11164;48.818;2.322;2023-10-31T02:57:52;10.98;;;2.97;;
21999;SDS011;11164;48.818;2.322;2023-10-31T03:00:17;7.63;;;2.83;;
21999;SDS011;11164;48.818;2.322;2023-10-31T03:02:43;11.15;;;3.00;;
21999;SDS011;11164;48.818;2.322;2023-10-31T03:05:08;10.45;;;3.17;;
21999;SDS011;11164;48.818;2.322;2023-10-31T03:07:33;13.77;;;3.13;;
21999;SDS011;11164;48.818;2.322;2023-10-31T03:09:59;9.65;;;3.20;;
21999;SDS011;11164;48.818;2.322;2023-10-31T03:12:24;9.68;;;3.20;;
21999;SDS011;11164;48.818;2.322;2023-10-31T03:14:49;8.18;;;2.92;;
21999;SDS011;11164;48.818;2.322;2023-10-31T03:17:15;8.10;;;2.72;;
21999;SDS011;11164;48.818;2.322;2023-10-31T03:19:40;8.88;;;3.30;;
21999;SDS011;11164;48.818;2.322;2023-10-31T03:22:05;10.38;;;3.33;;
21999;SDS011;11164;48.818;2.322;2023-10-31T03:24:31;12.32;;;3.00;;
21999;SDS011;11164;48.818;2.322;2023-10-31T03:26:58;10.45;;;3.40;;
21999;SDS011;11164;48.818;2.322;2023-10-31T03:29:23;8.20;;;3.13;;
21999;SDS011;11164;48.818;2.322;2023-10-31T03:31:48;12.57;;;3.45;;
21999;SDS011;11164;48.818;2.322;2023-10-31T03:34:14;12.77;;;3.67;;
21999;SDS011;11164;48.818;2.322;2023-10-31T03:36:39;9.13;;;3.65;;
21999;SDS011;11164;48.818;2.322;2023-10-31T03:39:04;10.90;;;3.38;;
21999;SDS011;11164;48.818;2.322;2023-10-31T03:41:30;9.98;;;3.47;;
21999;SDS011;11164;48.818;2.322;2023-10-31T03:43:55;11.60;;;3.50;;
21999;SDS011;11164;48.818;2.322;2023-10-31T03:46:21;8.20;;;3.42;;
21999;SDS011;11164;48.818;2.322;2023-10-31T03:48:46;8.88;;;3.35;;
21999;SDS011;11164;48.818;2.322;2023-10-31T03:51:11;11.65;;;3.30;;
21999;SDS011;11164;48.818;2.322;2023-10-31T03:53:36;11.13;;;3.58;;
21999;SDS011;11164;48.818;2.322;2023-10-31T03:56:02;11.80;;;3.75;;
21999;SDS011;11164;48.818;2.322;2023-10-31T03:58:28;9.52;;;3.17;;
21999;SDS011;11164;48.818;2.322;2023-10-31T04:00:54;10.23;;;2.85;;
21999;SDS011;11164;48.818;2.322;2023-10-31T04:03:19;9.52;;;3.10;;
21999;SDS011;11164;48.818;2.322;2023-10-31T04:05:44;8.57;;;2.92;;
21999;SDS011;11164;48.818;2.322;2023-10-31T04:08:11;7.93;;;2.83;;
21999;SDS011;11164;48.818;2.322;2023-10-31T04:10:36;8.65;;;3.10;;
21999;SDS011;11164;48.818;2.322;2023-10-31T04:13:02;10.60;;;3.25;;
21999;SDS011;11164;48.818;2.322;2023-10-31T04:15:27;10.98;;;3.03;;
21999;SDS011;11164;48.818;2.322;2023-10-31T04:17:53;10.32;;;3.25;;
21999;SDS011;11164;48.818;2.322;2023-10-31T04:20:18;14.35;;;3.83;;
21999;SDS011;11164;48.818;2.322;2023-10-31T04:22:43;11.35;;;3.50;;
21999;SDS011;11164;48.818;2.322;2023-10-31T04:25:09;7.45;;;2.85;;
21999;SDS011;11164;48.818;2.322;2023-10-31T04:27:34;8.80;;;3.05;;
21999;SDS011;11164;48.818;2.322;2023-10-31T04:29:59;10.50;;;3.08;;
21999;SDS011;11164;48.818;2.322;2023-10-31T04:32:25;9.40;;;3.40;;
21999;SDS011;11164;48.818;2.322;2023-10-31T04:34:50;7.40;;;3.05;;
21999;SDS011;11164;48.818;2.322;2023-10-31T04:37:15;13.15;;;3.33;;
21999;SDS011;11164;48.818;2.322;2023-10-31T04:39:40;8.27;;;2.60;;
21999;SDS011;11164;48.818;2.322;2023-10-31T04:42:06;8.27;;;2.80;;
21999;SDS011;11164;48.818;2.322;2023-10-31T04:44:31;11.05;;;3.35;;
21999;SDS011;11164;48.818;2.322;2023-10-31T04:46:56;8.18;;;3.10;;
21999;SDS011;11164;48.818;2.322;2023-10-31T04:49:22;9.48;;;2.78;;
21999;SDS011;11164;48.818;2.322;2023-10-31T04:51:47;12.93;;;3.33;;
21999;SDS011;11164;48.818;2.322;2023-10-31T04:54:13;6.85;;;2.95;;
21999;SDS011;11164;48.818;2.322;2023-10-31T04:56:38;7.70;;;3.08;;
21999;SDS011;11164;48.818;2.322;2023-10-31T04:59:03;9.07;;;3.30;;
21999;SDS011;11164;48.818;2.322;2023-10-31T05:01:29;11.00;;;3.25;;
21999;SDS011;11164;48.818;2.322;2023-10-31T05:03:54;13.18;;;3.10;;
21999;SDS011;11164;48.818;2.322;2023-10-31T05:06:20;13.88;;;3.70;;
21999;SDS011;11164;48.818;2.322;2023-10-31T05:08:46;9.50;;;3.78;;
21999;SDS011;11164;48.818;2.322;2023-10-31T05:11:12;9.77;;;3.70;;
21999;SDS011;11164;48.818;2.322;2023-10-31T05:13:38;9.65;;;3.50;;
21999;SDS011;11164;48.818;2.322;2023-10-31T05:16:03;13.43;;;4.40;;
21999;SDS011;11164;48.818;2.322;2023-10-31T05:18:29;10.80;;;3.97;;
21999;SDS011;11164;48.818;2.322;2023-10-31T05:20:54;13.10;;;4.70;;
21999;SDS011;11164;48.818;2.322;2023-10-31T05:23:19;13.43;;;4.80;;
21999;SDS011;11164;48.818;2.322;2023-10-31T05:25:45;14.27;;;4.25;;
21999;SDS011;11164;48.818;2.322;2023-10-31T05:28:10;14.25;;;4.50;;
21999;SDS011;11164;48.818;2.322;2023-10-31T05:30:35;11.57;;;4.10;;
21999;SDS011;11164;48.818;2.322;2023-10-31T05:33:02;15.15;;;4.90;;
21999;SDS011;11164;48.818;2.322;2023-10-31T05:35:27;14.65;;;4.15;;
21999;SDS011;11164;48.818;2.322;2023-10-31T05:37:52;16.33;;;4.43;;
21999;SDS011;11164;48.818;2.322;2023-10-31T05:40:18;10.80;;;4.18;;
21999;SDS011;11164;48.818;2.322;2023-10-31T05:42:47;11.05;;;4.35;;
21999;SDS011;11164;48.818;2.322;2023-10-31T05:45:12;14.52;;;4.82;;
21999;SDS011;11164;48.818;2.322;2023-10-31T05:47:38;15.10;;;4.05;;
21999;SDS011;11164;48.818;2.322;2023-10-31T05:50:03;9.55;;;4.00;;
21999;SDS011;11164;48.818;2.322;2023-10-31T05:52:30;12.80;;;4.45;;
21999;SDS011;11164;48.818;2.322;2023-10-31T05:54:57;15.90;;;4.95;;
21999;SDS011;11164;48.818;2.322;2023-10-31T05:57:23;10.50;;;3.83;;
21999;SDS011;11164;48.818;2.322;2023-10-31T05:59:48;12.15;;;3.97;;
21999;SDS011;11164;48.818;2.322;2023-10-31T06:02:14;11.68;;;4.13;;
21999;SDS011;11164;48.818;2.322;2023-10-31T06:04:39;10.30;;;3.40;;
21999;SDS011;11164;48.818;2.322;2023-10-31T06:07:05;10.07;;;3.63;;
21999;SDS011;11164;48.818;2.322;2023-10-31T06:09:31;12.82;;;3.55;;
21999;SDS011;11164;48.818;2.322;2023-10-31T06:11:58;10.75;;;3.75;;
21999;SDS011;11164;48.818;2.322;2023-10-31T06:14:23;11.82;;;3.20;;
21999;SDS011;11164;48.818;2.322;2023-10-31T06:16:49;10.15;;;3.60;;
21999;SDS011;11164;48.818;2.322;2023-10-31T06:19:14;9.32;;;3.50;;
21999;SDS011;11164;48.818;2.322;2023-10-31T06:21:39;13.32;;;3.72;;
21999;SDS011;11164;48.818;2.322;2023-10-31T06:24:05;15.13;;;4.18;;
21999;SDS011;11164;48.818;2.322;2023-10-31T06:26:31;10.50;;;3.20;;
21999;SDS011;11164;48.818;2.322;2023-10-31T06:28:56;11.38;;;3.20;;
21999;SDS011;11164;48.818;2.322;2023-10-31T06:31:21;5.88;;;2.65;;
21999;SDS011;11164;48.818;2.322;2023-10-31T06:33:47;16.48;;;3.38;;
21999;SDS011;11164;48.818;2.322;2023-10-31T06:36:12;9.52;;;2.97;;
21999;SDS011;11164;48.818;2.322;2023-10-31T06:38:37;11.98;;;3.58;;
21999;SDS011;11164;48.818;2.322;2023-10-31T06:41:03;11.48;;;2.83;;
21999;SDS011;11164;48.818;2.322;2023-10-31T06:43:28;9.35;;;3.10;;
21999;SDS011;11164;48.818;2.322;2023-10-31T06:45:54;9.10;;;2.80;;
21999;SDS011;11164;48.818;2.322;2023-10-31T06:48:20;12.77;;;2.85;;
21999;SDS011;11164;48.818;2.322;2023-10-31T06:50:45;7.13;;;2.30;;
21999;SDS011;11164;48.818;2.322;2023-10-31T06:53:10;9.45;;;2.45;;
21999;SDS011;11164;48.818;2.322;2023-10-31T06:55:36;7.65;;;2.35;;
21999;SDS011;11164;48.818;2.322;2023-10-31T06:58:01;5.25;;;2.10;;
21999;SDS011;11164;48.818;2.322;2023-10-31T07:00:27;6.45;;;2.05;;
21999;SDS011;11164;48.818;2.322;2023-10-31T07:02:52;8.20;;;2.05;;
21999;SDS011;11164;48.818;2.322;2023-10-31T07:05:18;5.28;;;2.17;;
21999;SDS011;11164;48.818;2.322;2023-10-31T07:07:45;7.93;;;2.53;;
21999;SDS011;11164;48.818;2.322;2023-10-31T07:10:11;10.25;;;2.42;;
21999;SDS011;11164;48.818;2.322;2023-10-31T07:12:36;8.23;;;2.20;;
21999;SDS011;11164;48.818;2.322;2023-10-31T07:15:01;9.43;;;2.35;;
21999;SDS011;11164;48.818;2.322;2023-10-31T07:17:27;9.10;;;2.60;;
21999;SDS011;11164;48.818;2.322;2023-10-31T07:19:52;6.95;;;2.17;;
21999;SDS011;11164;48.818;2.322;2023-10-31T07:22:17;7.88;;;2.78;;
21999;SDS011;11164;48.818;2.322;2023-10-31T07:24:43;8.65;;;2.03;;
21999;SDS011;11164;48.818;2.322;2023-10-31T07:27:09;6.43;;;2.38;;
21999;SDS011;11164;48.818;2.322;2023-10-31T07:29:34;8.73;;;2.25;;
21999;SDS011;11164;48.818;2.322;2023-10-31T07:32:00;6.88;;;2.42;;
21999;SDS011;11164;48.818;2.322;2023-10-31T07:34:25;12.02;;;2.15;;
21999;SDS011;11164;48.818;2.322;2023-10-31T07:36:51;8.23;;;1.95;;
21999;SDS011;11164;48.818;2.322;2023-10-31T07:39:16;6.47;;;2.47;;
21999;SDS011;11164;48.818;2.322;2023-10-31T07:41:42;9.50;;;1.95;;
21999;SDS011;11164;48.818;2.322;2023-10-31T07:44:07;8.13;;;2.10;;
21999;SDS011;11164;48.818;2.322;2023-10-31T07:46:32;7.65;;;2.38;;
21999;SDS011;11164;48.818;2.322;2023-10-31T07:48:58;8.38;;;2.30;;
21999;SDS011;11164;48.818;2.322;2023-10-31T07:51:23;7.50;;;1.90;;
21999;SDS011;11164;48.818;2.322;2023-10-31T07:53:48;6.60;;;1.90;;
21999;SDS011;11164;48.818;2.322;2023-10-31T07:56:14;5.85;;;1.77;;
21999;SDS011;11164;48.818;2.322;2023-10-31T07:58:41;10.48;;;2.72;;
21999;SDS011;11164;48.818;2.322;2023-10-31T08:01:06;6.43;;;2.03;;
21999;SDS011;11164;48.818;2.322;2023-10-31T08:03:35;9.05;;;2.13;;
21999;SDS011;11164;48.818;2.322;2023-10-31T08:06:05;8.00;;;2.05;;
21999;SDS011;11164;48.818;2.322;2023-10-31T08:08:31;5.50;;;1.52;;
21999;SDS011;11164;48.818;2.322;2023-10-31T08:10:57;5.20;;;1.65;;
21999;SDS011;11164;48.818;2.322;2023-10-31T08:13:24;5.43;;;1.52;;
21999;SDS011;11164;48.818;2.322;2023-10-31T08:15:49;6.88;;;1.75;;
21999;SDS011;11164;48.818;2.322;2023-10-31T08:18:14;5.25;;;1.88;;
21999;SDS011;11164;48.818;2.322;2023-10-31T08:20:40;6.40;;;1.65;;
21999;SDS011;11164;48.818;2.322;2023-10-31T08:23:05;4.70;;;1.25;;
21999;SDS011;11164;48.818;2.322;2023-10-31T08:25:30;5.88;;;1.63;;
21999;SDS011;11164;48.818;2.322;2023-10-31T08:27:56;5.25;;;1.60;;
21999;SDS011;11164;48.818;2.322;2023-10-31T08:30:21;11.07;;;1.80;;
21999;SDS011;11164;48.818;2.322;2023-10-31T08:32:47;5.20;;;1.50;;
21999;SDS011;11164;48.818;2.322;2023-10-31T08:35:12;4.47;;;1.92;;
21999;SDS011;11164;48.818;2.322;2023-10-31T08:37:37;7.60;;;1.63;;
21999;SDS011;11164;48.818;2.322;2023-10-31T08:40:04;6.38;;;2.00;;
21999;SDS011;11164;48.818;2.322;2023-10-31T08:42:30;7.10;;;1.80;;
21999;SDS011;11164;48.818;2.322;2023-10-31T08:44:56;5.55;;;1.92;;
21999;SDS011;11164;48.818;2.322;2023-10-31T08:47:21;7.20;;;1.70;;
21999;SDS011;11164;48.818;2.322;2023-10-31T08:49:46;6.28;;;1.48;;
21999;SDS011;11164;48.818;2.322;2023-10-31T08:52:11;8.70;;;2.03;;
21999;SDS011;11164;48.818;2.322;2023-10-31T08:54:37;7.03;;;2.17;;
21999;SDS011;11164;48.818;2.322;2023-10-31T08:57:02;6.90;;;1.95;;
21999;SDS011;11164;48.818;2.322;2023-10-31T08:59:28;6.68;;;2.28;;
21999;SDS011;11164;48.818;2.322;2023-10-31T09:01:53;9.43;;;2.03;;
21999;SDS011;11164;48.818;2.322;2023-10-31T09:04:18;5.30;;;1.70;;
21999;SDS011;11164;48.818;2.322;2023-10-31T09:06:44;7.50;;;1.42;;
21999;SDS011;11164;48.818;2.322;2023-10-31T09:09:09;8.90;;;1.83;;
21999;SDS011;11164;48.818;2.322;2023-10-31T09:11:35;5.55;;;1.70;;
21999;SDS011;11164;48.818;2.322;2023-10-31T09:14:00;5.75;;;1.75;;
21999;SDS011;11164;48.818;2.322;2023-10-31T09:16:26;7.07;;;1.60;;
21999;SDS011;11164;48.818;2.322;2023-10-31T09:18:51;6.63;;;1.70;;
21999;SDS011;11164;48.818;2.322;2023-10-31T09:21:17;7.10;;;1.55;;
21999;SDS011;11164;48.818;2.322;2023-10-31T09:23:42;8.65;;;1.90;;
21999;SDS011;11164;48.818;2.322;2023-10-31T09:26:08;7.00;;;1.55;;
21999;SDS011;11164;48.818;2.322;2023-10-31T09:28:33;9.13;;;1.75;;
21999;SDS011;11164;48.818;2.322;2023-10-31T09:31:01;4.97;;;1.70;;
21999;SDS011;11164;48.818;2.322;2023-10-31T09:33:27;7.43;;;1.67;;
21999;SDS011;11164;48.818;2.322;2023-10-31T09:35:52;3.85;;;1.48;;
21999;SDS011;11164;48.818;2.322;2023-10-31T09:38:17;5.63;;;1.60;;
21999;SDS011;11164;48.818;2.322;2023-10-31T09:40:43;9.00;;;1.73;;
21999;SDS011;11164;48.818;2.322;2023-10-31T09:43:08;7.72;;;1.70;;
21999;SDS011;11164;48.818;2.322;2023-10-31T09:45:34;6.18;;;1.58;;
21999;SDS011;11164;48.818;2.322;2023-10-31T09:48:00;11.32;;;1.98;;
21999;SDS011;11164;48.818;2.322;2023-10-31T09:50:26;10.95;;;2.20;;
21999;SDS011;11164;48.818;2.322;2023-10-31T09:52:52;4.32;;;1.58;;
21999;SDS011;11164;48.818;2.322;2023-10-31T09:55:18;10.32;;;2.10;;
21999;SDS011;11164;48.818;2.322;2023-10-31T09:57:44;5.28;;;1.58;;
21999;SDS011;11164;48.818;2.322;2023-10-31T10:00:10;7.07;;;1.65;;
21999;SDS011;11164;48.818;2.322;2023-10-31T10:02:37;6.05;;;1.67;;
21999;SDS011;11164;48.818;2.322;2023-10-31T10:05:02;7.05;;;1.55;;
21999;SDS011;11164;48.818;2.322;2023-10-31T10:07:29;5.00;;;1.40;;
21999;SDS011;11164;48.818;2.322;2023-10-31T10:09:55;4.13;;;1.50;;
21999;SDS011;11164;48.818;2.322;2023-10-31T10:12:21;7.07;;;1.50;;
21999;SDS011;11164;48.818;2.322;2023-10-31T10:14:47;3.50;;;1.20;;
21999;SDS011;11164;48.818;2.322;2023-10-31T10:17:22;5.43;;;1.17;;
21999;SDS011;11164;48.818;2.322;2023-10-31T10:19:54;3.95;;;1.20;;
21999;SDS011;11164;48.818;2.322;2023-10-31T10:22:31;8.93;;;1.80;;
21999;SDS011;11164;48.818;2.322;2023-10-31T10:24:57;4.50;;;1.45;;
21999;SDS011;11164;48.818;2.322;2023-10-31T10:27:22;3.60;;;1.20;;
21999;SDS011;11164;48.818;2.322;2023-10-31T10:29:49;3.42;;;1.00;;
21999;SDS011;11164;48.818;2.322;2023-10-31T10:32:18;6.25;;;1.60;;
21999;SDS011;11164;48.818;2.322;2023-10-31T10:34:43;6.38;;;1.40;;
21999;SDS011;11164;48.818;2.322;2023-10-31T10:37:10;4.47;;;1.17;;
21999;SDS011;11164;48.818;2.322;2023-10-31T10:39:36;5.68;;;1.58;;
21999;SDS011;11164;48.818;2.322;2023-10-31T10:42:05;5.10;;;1.27;;
21999;SDS011;11164;48.818;2.322;2023-10-31T10:44:35;5.03;;;1.42;;
21999;SDS011;11164;48.818;2.322;2023-10-31T10:47:05;3.65;;;1.08;;
21999;SDS011;11164;48.818;2.322;2023-10-31T10:49:35;5.30;;;0.90;;
21999;SDS011;11164;48.818;2.322;2023-10-31T10:52:08;5.40;;;1.55;;
21999;SDS011;11164;48.818;2.322;2023-10-31T10:54:45;3.80;;;1.10;;
21999;SDS011;11164;48.818;2.322;2023-10-31T11:00:07;3.70;;;1.15;;
21999;SDS011;11164;48.818;2.322;2023-10-31T11:02:35;3.83;;;0.93;;
21999;SDS011;11164;48.818;2.322;2023-10-31T11:05:02;6.38;;;1.23;;
21999;SDS011;11164;48.818;2.322;2023-10-31T11:07:32;4.38;;;1.33;;
21999;SDS011;11164;48.818;2.322;2023-10-31T11:09:59;3.58;;;1.58;;
21999;SDS011;11164;48.818;2.322;2023-10-31T11:12:27;5.43;;;1.70;;
21999;SDS011;11164;48.818;2.322;2023-10-31T11:14:55;5.57;;;1.73;;
21999;SDS011;11164;48.818;2.322;2023-10-31T11:19:54;5.38;;;1.23;;
21999;SDS011;11164;48.818;2.322;2023-10-31T11:22:20;6.90;;;1.67;;
21999;SDS011;11164;48.818;2.322;2023-10-31T11:24:47;4.60;;;1.33;;
21999;SDS011;11164;48.818;2.322;2023-10-31T11:27:14;8.35;;;1.63;;
21999;SDS011;11164;48.818;2.322;2023-10-31T11:29:39;5.03;;;1.20;;
21999;SDS011;11164;48.818;2.322;2023-10-31T11:32:08;5.05;;;1.70;;
21999;SDS011;11164;48.818;2.322;2023-10-31T11:34:37;6.05;;;1.35;;
21999;SDS011;11164;48.818;2.322;2023-10-31T11:37:25;5.07;;;1.60;;
21999;SDS011;11164;48.818;2.322;2023-10-31T11:42:42;5.57;;;1.30;;
21999;SDS011;11164;48.818;2.322;2023-10-31T11:45:08;7.20;;;1.75;;
21999;SDS011;11164;48.818;2.322;2023-10-31T11:50:12;7.05;;;1.63;;
21999;SDS011;11164;48.818;2.322;2023-10-31T11:52:38;8.07;;;1.80;;
21999;SDS011;11164;48.818;2.322;2023-10-31T11:55:04;24.15;;;12.75;;
21999;SDS011;11164;48.818;2.322;2023-10-31T11:57:34;15.88;;;6.30;;
21999;SDS011;11164;48.818;2.322;2023-10-31T11:59:59;12.32;;;5.93;;
21999;SDS011;11164;48.818;2.322;2023-10-31T12:02:25;8.15;;;3.20;;
21999;SDS011;11164;48.818;2.322;2023-10-31T12:04:50;6.93;;;1.77;;
21999;SDS011;11164;48.818;2.322;2023-10-31T12:07:16;9.35;;;3.40;;
21999;SDS011;11164;48.818;2.322;2023-10-31T12:09:46;9.05;;;3.58;;
21999;SDS011;11164;48.818;2.322;2023-10-31T12:12:12;8.13;;;1.67;;
21999;SDS011;11164;48.818;2.322;2023-10-31T12:14:38;6.05;;;1.90;;
21999;SDS011;11164;48.818;2.322;2023-10-31T12:17:04;4.57;;;1.50;;
21999;SDS011;11164;48.818;2.322;2023-10-31T12:19:30;6.90;;;2.13;;
21999;SDS011;11164;48.818;2.322;2023-10-31T12:21:55;6.68;;;2.30;;
21999;SDS011;11164;48.818;2.322;2023-10-31T12:24:21;6.10;;;2.20;;
21999;SDS011;11164;48.818;2.322;2023-10-31T12:26:47;5.35;;;1.90;;
21999;SDS011;11164;48.818;2.322;2023-10-31T12:29:19;7.47;;;1.92;;
21999;SDS011;11164;48.818;2.322;2023-10-31T12:31:49;5.97;;;1.30;;
21999;SDS011;11164;48.818;2.322;2023-10-31T12:34:19;6.27;;;1.37;;
21999;SDS011;11164;48.818;2.322;2023-10-31T12:36:46;6.30;;;1.50;;
21999;SDS011;11164;48.818;2.322;2023-10-31T12:39:13;9.27;;;1.35;;
21999;SDS011;11164;48.818;2.322;2023-10-31T12:41:40;6.22;;;1.27;;
21999;SDS011;11164;48.818;2.322;2023-10-31T12:44:06;7.53;;;1.23;;
21999;SDS011;11164;48.818;2.322;2023-10-31T12:46:38;7.85;;;1.65;;
21999;SDS011;11164;48.818;2.322;2023-10-31T12:49:10;5.40;;;2.33;;
21999;SDS011;11164;48.818;2.322;2023-10-31T12:51:36;9.15;;;1.83;;
21999;SDS011;11164;48.818;2.322;2023-10-31T12:54:01;5.88;;;1.52;;
21999;SDS011;11164;48.818;2.322;2023-10-31T12:56:39;6.50;;;1.90;;
21999;SDS011;11164;48.818;2.322;2023-10-31T12:59:09;4.55;;;1.77;;
21999;SDS011;11164;48.818;2.322;2023-10-31T13:01:36;4.03;;;1.60;;
21999;SDS011;11164;48.818;2.322;2023-10-31T13:04:08;5.78;;;1.58;;
21999;SDS011;11164;48.818;2.322;2023-10-31T13:06:34;8.32;;;1.77;;
21999;SDS011;11164;48.818;2.322;2023-10-31T13:09:00;8.00;;;1.98;;
21999;SDS011;11164;48.818;2.322;2023-10-31T13:11:30;5.30;;;1.10;;
21999;SDS011;11164;48.818;2.322;2023-10-31T13:13:55;6.95;;;1.70;;
21999;SDS011;11164;48.818;2.322;2023-10-31T13:16:21;6.78;;;1.25;;
21999;SDS011;11164;48.818;2.322;2023-10-31T13:18:46;4.25;;;1.40;;
21999;SDS011;11164;48.818;2.322;2023-10-31T13:21:12;6.63;;;1.55;;
21999;SDS011;11164;48.818;2.322;2023-10-31T13:23:39;4.95;;;1.30;;
21999;SDS011;11164;48.818;2.322;2023-10-31T13:26:10;4.05;;;1.38;;
21999;SDS011;11164;48.818;2.322;2023-10-31T13:28:39;5.93;;;1.30;;
21999;SDS011;11164;48.818;2.322;2023-10-31T13:31:05;7.82;;;1.50;;
21999;SDS011;11164;48.818;2.322;2023-10-31T13:33:31;8.30;;;1.60;;
21999;SDS011;11164;48.818;2.322;2023-10-31T13:35:58;5.18;;;0.93;;
21999;SDS011;11164;48.818;2.322;2023-10-31T13:38:23;6.80;;;1.42;;
21999;SDS011;11164;48.818;2.322;2023-10-31T13:40:48;6.65;;;1.50;;
21999;SDS011;11164;48.818;2.322;2023-10-31T13:43:13;7.15;;;1.40;;
21999;SDS011;11164;48.818;2.322;2023-10-31T13:45:39;6.65;;;1.30;;
21999;SDS011;11164;48.818;2.322;2023-10-31T13:48:04;6.82;;;1.13;;
21999;SDS011;11164;48.818;2.322;2023-10-31T13:50:30;6.72;;;1.15;;
21999;SDS011;11164;48.818;2.322;2023-10-31T13:52:55;8.30;;;1.30;;
21999;SDS011;11164;48.818;2.322;2023-10-31T13:55:21;5.95;;;1.50;;
21999;SDS011;11164;48.818;2.322;2023-10-31T13:57:48;4.95;;;1.42;;
21999;SDS011;11164;48.818;2.322;2023-10-31T14:00:14;6.45;;;1.05;;
21999;SDS011;11164;48.818;2.322;2023-10-31T14:02:39;8.82;;;1.48;;
21999;SDS011;11164;48.818;2.322;2023-10-31T14:05:05;8.55;;;1.60;;
21999;SDS011;11164;48.818;2.322;2023-10-31T14:07:30;8.07;;;1.60;;
21999;SDS011;11164;48.818;2.322;2023-10-31T14:09:56;5.85;;;1.10;;
21999;SDS011;11164;48.818;2.322;2023-10-31T14:12:22;6.30;;;1.65;;
21999;SDS011;11164;48.818;2.322;2023-10-31T14:14:47;5.43;;;1.23;;
21999;SDS011;11164;48.818;2.322;2023-10-31T14:17:14;7.00;;;1.65;;
21999;SDS011;11164;48.818;2.322;2023-10-31T14:19:41;5.75;;;1.50;;
21999;SDS011;11164;48.818;2.322;2023-10-31T14:22:07;9.35;;;2.08;;
21999;SDS011;11164;48.818;2.322;2023-10-31T14:24:33;6.43;;;1.20;;
21999;SDS011;11164;48.818;2.322;2023-10-31T14:26:59;4.88;;;1.27;;
21999;SDS011;11164;48.818;2.322;2023-10-31T14:29:25;9.20;;;2.50;;
21999;SDS011;11164;48.818;2.322;2023-10-31T14:31:50;8.02;;;1.90;;
21999;SDS011;11164;48.818;2.322;2023-10-31T14:34:15;5.68;;;1.35;;
21999;SDS011;11164;48.818;2.322;2023-10-31T14:36:41;6.60;;;1.70;;
21999;SDS011;11164;48.818;2.322;2023-10-31T14:39:07;5.80;;;1.30;;
21999;SDS011;11164;48.818;2.322;2023-10-31T14:41:33;12.73;;;2.60;;
21999;SDS011;11164;48.818;2.322;2023-10-31T14:43:59;8.80;;;1.50;;
21999;SDS011;11164;48.818;2.322;2023-10-31T14:46:25;8.07;;;1.60;;
21999;SDS011;11164;48.818;2.322;2023-10-31T14:48:50;9.65;;;1.70;;